createdAt,value
2023-01-17T00:00:09.286Z,5.62
2023-01-17T00:01:09.636Z,5.59
2023-01-17T00:02:09.480Z,5.59
2023-01-17T00:03:10.745Z,5.59
2023-01-17T00:04:09.722Z,5.59
2023-01-17T00:05:09.423Z,5.59
2023-01-17T00:06:09.214Z,5.59
2023-01-17T00:07:09.872Z,5.59
2023-01-17T00:08:09.477Z,5.59
2023-01-17T00:09:09.265Z,5.59
2023-01-17T00:10:09.684Z,5.59
2023-01-17T00:11:09.207Z,5.59
2023-01-17T00:12:08.041Z,5.59
2023-01-17T00:13:09.804Z,5.59
2023-01-17T00:14:09.414Z,5.59
2023-01-17T00:15:10.719Z,5.59
2023-01-17T00:16:09.226Z,5.59
2023-01-17T00:17:09.204Z,5.59
2023-01-17T00:18:09.344Z,5.59
2023-01-17T00:19:10.071Z,5.59
2023-01-17T00:20:09.974Z,5.59
2023-01-17T00:21:09.200Z,5.59
2023-01-17T00:22:09.861Z,5.59
2023-01-17T00:23:10.107Z,5.59
2023-01-17T00:24:10.581Z,5.59
2023-01-17T00:25:10.207Z,5.55
2023-01-17T00:26:09.727Z,5.55
2023-01-17T00:27:09.911Z,5.55
2023-01-17T00:28:09.208Z,5.51
2023-01-17T00:29:09.714Z,5.51
2023-01-17T00:30:10.246Z,5.47
2023-01-17T00:31:09.347Z,5.44
2023-01-17T00:32:09.219Z,5.36
2023-01-17T00:33:10.137Z,5.36
2023-01-17T00:34:10.053Z,5.36
2023-01-17T00:35:10.065Z,5.36
2023-01-17T00:36:09.327Z,5.4
2023-01-17T00:37:10.274Z,5.4
2023-01-17T00:38:09.665Z,5.4
2023-01-17T00:39:09.187Z,5.4
2023-01-17T00:40:10.700Z,5.44
2023-01-17T00:41:09.904Z,5.44
2023-01-17T00:42:10.697Z,5.44
2023-01-17T00:43:09.600Z,5.47
2023-01-17T00:44:10.224Z,5.47
2023-01-17T00:45:09.495Z,5.47
2023-01-17T00:46:09.356Z,5.47
2023-01-17T00:47:09.900Z,5.47
2023-01-17T00:48:10.035Z,5.47
2023-01-17T00:49:09.602Z,5.51
2023-01-17T00:50:10.459Z,5.51
2023-01-17T00:51:11.351Z,5.51
2023-01-17T00:52:09.206Z,5.51
2023-01-17T00:53:09.948Z,5.47
2023-01-17T00:54:09.628Z,5.51
2023-01-17T00:55:10.347Z,5.51
2023-01-17T00:56:08.017Z,5.51
2023-01-17T00:57:09.295Z,5.51
2023-01-17T00:58:09.214Z,5.51
2023-01-17T00:59:09.438Z,5.51
2023-01-17T01:00:09.929Z,5.51
2023-01-17T01:01:10.662Z,5.51
2023-01-17T01:02:09.809Z,5.51
2023-01-17T01:03:09.487Z,5.51
2023-01-17T01:04:09.869Z,5.51
2023-01-17T01:05:09.701Z,5.51
2023-01-17T01:06:10.116Z,5.51
2023-01-17T01:07:10.073Z,5.51
2023-01-17T01:08:10.051Z,5.51
2023-01-17T01:09:09.340Z,5.51
2023-01-17T01:10:09.805Z,5.51
2023-01-17T01:11:10.086Z,5.51
2023-01-17T01:12:10.026Z,5.51
2023-01-17T01:13:10.156Z,5.51
2023-01-17T01:14:09.786Z,5.55
2023-01-17T01:15:09.837Z,5.55
2023-01-17T01:16:09.608Z,5.55
2023-01-17T01:17:09.524Z,5.55
2023-01-17T01:18:08.252Z,5.55
2023-01-17T01:19:09.929Z,5.55
2023-01-17T01:20:08.413Z,5.59
2023-01-17T01:21:09.555Z,5.59
2023-01-17T01:22:10.756Z,5.59
2023-01-17T01:23:09.761Z,5.59
2023-01-17T01:24:09.713Z,5.59
2023-01-17T01:25:09.600Z,5.59
2023-01-17T01:26:09.422Z,5.59
2023-01-17T01:27:09.482Z,5.59
2023-01-17T01:28:09.284Z,5.59
2023-01-17T01:29:10.389Z,5.59
2023-01-17T01:30:09.605Z,5.59
2023-01-17T01:31:10.252Z,5.59
2023-01-17T01:32:09.413Z,5.59
2023-01-17T01:33:10.656Z,5.55
2023-01-17T01:34:10.319Z,5.59
2023-01-17T01:35:09.822Z,5.59
2023-01-17T01:36:10.068Z,5.55
2023-01-17T01:37:10.556Z,5.59
2023-01-17T01:38:09.664Z,5.55
2023-01-17T01:39:09.803Z,5.51
2023-01-17T01:40:10.361Z,5.51
2023-01-17T01:41:10.320Z,5.51
2023-01-17T01:42:08.374Z,5.51
2023-01-17T01:43:09.987Z,5.51
2023-01-17T01:44:09.212Z,5.51
2023-01-17T01:45:10.008Z,5.51
2023-01-17T01:46:09.822Z,5.51
2023-01-17T01:47:09.822Z,5.51
2023-01-17T01:48:09.213Z,5.51
2023-01-17T01:49:10.523Z,5.51
2023-01-17T01:50:09.544Z,5.51
2023-01-17T01:51:09.968Z,5.51
2023-01-17T01:52:09.222Z,5.51
2023-01-17T01:53:09.525Z,5.51
2023-01-17T01:54:09.857Z,5.51
2023-01-17T01:55:09.530Z,5.51
2023-01-17T01:56:09.501Z,5.51
2023-01-17T01:57:09.770Z,5.51
2023-01-17T01:58:10.173Z,5.51
2023-01-17T01:59:09.674Z,5.51
2023-01-17T02:00:09.489Z,5.51
2023-01-17T02:01:10.524Z,5.51
2023-01-17T02:02:10.098Z,5.51
2023-01-17T02:03:09.559Z,5.51
2023-01-17T02:04:08.873Z,5.51
2023-01-17T02:05:09.927Z,5.51
2023-01-17T02:06:10.520Z,5.51
2023-01-17T02:07:09.688Z,5.51
2023-01-17T02:08:09.197Z,5.51
2023-01-17T02:09:10.140Z,5.51
2023-01-17T02:10:09.877Z,5.51
2023-01-17T02:11:09.610Z,5.51
2023-01-17T02:12:09.756Z,5.51
2023-01-17T02:13:09.862Z,5.51
2023-01-17T02:14:10.065Z,5.51
2023-01-17T02:15:10.407Z,5.51
2023-01-17T02:16:09.842Z,5.51
2023-01-17T02:17:09.191Z,5.51
2023-01-17T02:18:09.808Z,5.51
2023-01-17T02:19:10.030Z,5.51
2023-01-17T02:20:10.310Z,5.51
2023-01-17T02:21:11.729Z,5.51
2023-01-17T02:22:09.764Z,5.51
2023-01-17T02:23:09.452Z,5.47
2023-01-17T02:24:10.620Z,5.51
2023-01-17T02:25:09.283Z,5.51
2023-01-17T02:26:10.153Z,5.47
2023-01-17T02:28:09.256Z,5.47
2023-01-17T02:29:10.062Z,5.47
2023-01-17T02:30:09.174Z,5.47
2023-01-17T02:31:09.572Z,5.47
2023-01-17T02:32:09.987Z,5.47
2023-01-17T02:33:09.254Z,5.47
2023-01-17T02:34:09.795Z,5.47
2023-01-17T02:35:09.190Z,5.47
2023-01-17T02:36:09.818Z,5.47
2023-01-17T02:37:09.638Z,5.44
2023-01-17T02:38:09.356Z,5.44
2023-01-17T02:39:09.193Z,5.44
2023-01-17T02:40:09.542Z,5.44
2023-01-17T02:41:09.262Z,5.44
2023-01-17T02:42:09.218Z,5.44
2023-01-17T02:43:09.163Z,5.44
2023-01-17T02:44:09.788Z,5.44
2023-01-17T02:45:10.230Z,5.44
2023-01-17T02:46:10.080Z,5.44
2023-01-17T02:47:09.281Z,5.44
2023-01-17T02:48:10.294Z,5.44
2023-01-17T02:49:09.920Z,5.44
2023-01-17T02:50:08.799Z,5.44
2023-01-17T02:51:10.208Z,5.44
2023-01-17T02:52:09.691Z,5.4
2023-01-17T02:53:09.377Z,5.44
2023-01-17T02:54:09.212Z,5.44
2023-01-17T02:55:09.739Z,5.44
2023-01-17T02:56:09.477Z,5.44
2023-01-17T02:57:09.853Z,5.44
2023-01-17T02:58:10.557Z,5.44
2023-01-17T02:59:09.255Z,5.44
2023-01-17T03:00:09.558Z,5.4
2023-01-17T03:01:09.439Z,5.4
2023-01-17T03:02:09.287Z,5.44
2023-01-17T03:03:10.189Z,5.44
2023-01-17T03:04:09.180Z,5.44
2023-01-17T03:05:09.702Z,5.44
2023-01-17T03:06:10.105Z,5.44
2023-01-17T03:07:09.721Z,5.44
2023-01-17T03:08:09.521Z,5.4
2023-01-17T03:09:10.108Z,5.4
2023-01-17T03:10:10.047Z,5.36
2023-01-17T03:11:09.370Z,5.36
2023-01-17T03:12:10.140Z,5.33
2023-01-17T03:13:09.885Z,5.29
2023-01-17T03:14:09.167Z,5.29
2023-01-17T03:15:09.336Z,5.33
2023-01-17T03:16:12.567Z,5.29
2023-01-17T03:17:09.936Z,5.29
2023-01-17T03:18:09.326Z,5.33
2023-01-17T03:19:09.747Z,5.33
2023-01-17T03:20:09.203Z,5.33
2023-01-17T03:21:09.701Z,5.33
2023-01-17T03:22:09.923Z,5.33
2023-01-17T03:23:10.071Z,5.33
2023-01-17T03:24:09.838Z,5.33
2023-01-17T03:25:10.264Z,5.33
2023-01-17T03:26:09.557Z,5.33
2023-01-17T03:27:09.944Z,5.33
2023-01-17T03:28:09.849Z,5.36
2023-01-17T03:29:09.788Z,5.36
2023-01-17T03:30:09.839Z,5.36
2023-01-17T03:31:09.664Z,5.36
2023-01-17T03:32:09.893Z,5.36
2023-01-17T03:33:09.989Z,5.36
2023-01-17T03:34:10.307Z,5.36
2023-01-17T03:35:10.111Z,5.4
2023-01-17T03:36:10.731Z,5.4
2023-01-17T03:37:09.920Z,5.4
2023-01-17T03:38:09.913Z,5.4
2023-01-17T03:39:09.320Z,5.4
2023-01-17T03:40:09.352Z,5.4
2023-01-17T03:41:09.540Z,5.4
2023-01-17T03:42:10.028Z,5.4
2023-01-17T03:43:10.047Z,5.4
2023-01-17T03:44:09.438Z,5.4
2023-01-17T03:45:10.047Z,5.4
2023-01-17T03:46:10.465Z,5.4
2023-01-17T03:47:09.820Z,5.4
2023-01-17T03:48:10.335Z,5.4
2023-01-17T03:49:09.384Z,5.4
2023-01-17T03:50:10.567Z,5.4
2023-01-17T03:51:09.296Z,5.4
2023-01-17T03:52:10.409Z,5.44
2023-01-17T03:53:10.087Z,5.44
2023-01-17T03:54:09.825Z,5.44
2023-01-17T03:55:09.164Z,5.44
2023-01-17T03:56:09.852Z,5.4
2023-01-17T03:57:09.527Z,5.44
2023-01-17T03:58:09.172Z,5.4
2023-01-17T03:59:11.517Z,5.4
2023-01-17T04:00:09.383Z,5.4
2023-01-17T04:01:09.686Z,5.4
2023-01-17T04:02:09.817Z,5.4
2023-01-17T04:03:09.771Z,5.44
2023-01-17T04:04:09.959Z,5.44
2023-01-17T04:05:09.941Z,5.44
2023-01-17T04:06:09.241Z,5.44
2023-01-17T04:07:09.895Z,5.4
2023-01-17T04:08:10.381Z,5.4
2023-01-17T04:09:10.084Z,5.44
2023-01-17T04:10:10.046Z,5.4
2023-01-17T04:11:09.905Z,5.4
2023-01-17T04:12:09.918Z,5.4
2023-01-17T04:13:09.302Z,5.4
2023-01-17T04:14:09.326Z,5.4
2023-01-17T04:15:10.660Z,5.4
2023-01-17T04:16:10.147Z,5.4
2023-01-17T04:17:09.314Z,5.4
2023-01-17T04:18:09.753Z,5.4
2023-01-17T04:19:08.192Z,5.4
2023-01-17T04:20:09.530Z,5.4
2023-01-17T04:21:09.501Z,5.4
2023-01-17T04:22:09.777Z,5.4
2023-01-17T04:23:09.891Z,5.4
2023-01-17T04:24:09.717Z,5.4
2023-01-17T04:25:09.956Z,5.4
2023-01-17T04:26:09.633Z,5.4
2023-01-17T04:27:09.195Z,5.36
2023-01-17T04:28:09.184Z,5.36
2023-01-17T04:29:09.187Z,5.33
2023-01-17T04:30:09.163Z,5.33
2023-01-17T04:31:09.843Z,5.33
2023-01-17T04:32:09.643Z,5.33
2023-01-17T04:33:09.795Z,5.33
2023-01-17T04:34:09.687Z,5.33
2023-01-17T04:35:10.002Z,5.36
2023-01-17T04:36:09.186Z,5.36
2023-01-17T04:37:10.151Z,5.36
2023-01-17T04:38:09.156Z,5.36
2023-01-17T04:39:09.158Z,5.36
2023-01-17T04:40:09.884Z,5.36
2023-01-17T04:41:09.508Z,5.36
2023-01-17T04:42:09.193Z,5.36
2023-01-17T04:43:09.836Z,5.36
2023-01-17T04:44:10.293Z,5.36
2023-01-17T04:45:09.422Z,5.36
2023-01-17T04:46:09.794Z,5.36
2023-01-17T04:47:09.551Z,5.36
2023-01-17T04:48:10.122Z,5.4
2023-01-17T04:49:10.915Z,5.36
2023-01-17T04:50:09.177Z,5.4
2023-01-17T04:51:10.157Z,5.4
2023-01-17T04:52:09.955Z,5.4
2023-01-17T04:53:09.286Z,5.4
2023-01-17T04:54:09.576Z,5.4
2023-01-17T04:55:09.884Z,5.4
2023-01-17T04:56:09.796Z,5.4
2023-01-17T04:57:10.201Z,5.4
2023-01-17T04:58:10.045Z,5.4
2023-01-17T04:59:09.605Z,5.4
2023-01-17T05:00:10.045Z,5.4
2023-01-17T05:01:09.234Z,5.4
2023-01-17T05:02:09.918Z,5.44
2023-01-17T05:03:09.361Z,5.44
2023-01-17T05:04:09.380Z,5.44
2023-01-17T05:05:09.529Z,5.4
2023-01-17T05:06:09.547Z,5.4
2023-01-17T05:07:10.478Z,5.44
2023-01-17T05:08:09.411Z,5.4
2023-01-17T05:09:09.560Z,5.4
2023-01-17T05:10:09.581Z,5.4
2023-01-17T05:11:09.585Z,5.4
2023-01-17T05:12:09.545Z,5.4
2023-01-17T05:13:10.485Z,5.4
2023-01-17T05:14:10.181Z,5.4
2023-01-17T05:15:09.144Z,5.4
2023-01-17T05:16:09.828Z,5.36
2023-01-17T05:17:10.397Z,5.36
2023-01-17T05:18:09.968Z,5.36
2023-01-17T05:19:09.929Z,5.36
2023-01-17T05:20:09.164Z,5.36
2023-01-17T05:21:10.228Z,5.36
2023-01-17T05:22:09.151Z,5.36
2023-01-17T05:23:09.332Z,5.36
2023-01-17T05:24:09.659Z,5.36
2023-01-17T05:25:09.131Z,5.36
2023-01-17T05:26:08.347Z,5.36
2023-01-17T05:27:09.743Z,5.36
2023-01-17T05:28:10.189Z,5.36
2023-01-17T05:29:09.205Z,5.36
2023-01-17T05:30:09.366Z,5.36
2023-01-17T05:31:09.757Z,5.36
2023-01-17T05:32:09.385Z,5.36
2023-01-17T05:33:09.688Z,5.36
2023-01-17T05:34:09.269Z,5.36
2023-01-17T05:35:09.169Z,5.36
2023-01-17T05:36:09.200Z,5.33
2023-01-17T05:37:10.267Z,5.33
2023-01-17T05:38:10.076Z,5.33
2023-01-17T05:39:09.637Z,5.33
2023-01-17T05:40:09.564Z,5.33
2023-01-17T05:41:09.566Z,5.33
2023-01-17T05:42:11.416Z,5.33
2023-01-17T05:43:10.177Z,5.29
2023-01-17T05:44:10.076Z,5.29
2023-01-17T05:45:09.938Z,5.29
2023-01-17T05:46:09.207Z,5.29
2023-01-17T05:47:10.128Z,5.29
2023-01-17T05:48:09.594Z,5.29
2023-01-17T05:49:10.173Z,5.29
2023-01-17T05:50:09.663Z,5.29
2023-01-17T05:51:09.772Z,5.29
2023-01-17T05:52:09.756Z,5.29
2023-01-17T05:53:10.330Z,5.29
2023-01-17T05:54:09.639Z,5.29
2023-01-17T05:55:09.861Z,5.33
2023-01-17T05:56:09.753Z,5.29
2023-01-17T05:57:09.755Z,5.29
2023-01-17T05:58:09.860Z,5.33
2023-01-17T05:59:10.793Z,5.33
2023-01-17T06:00:09.422Z,5.29
2023-01-17T06:01:09.625Z,5.29
2023-01-17T06:02:10.387Z,5.29
2023-01-17T06:03:10.889Z,5.29
2023-01-17T06:04:09.704Z,5.29
2023-01-17T06:05:10.414Z,5.29
2023-01-17T06:06:10.031Z,5.29
2023-01-17T06:07:09.153Z,5.29
2023-01-17T06:08:10.001Z,5.29
2023-01-17T06:09:09.758Z,5.29
2023-01-17T06:10:08.245Z,5.29
2023-01-17T06:11:10.167Z,5.29
2023-01-17T06:12:09.575Z,5.29
2023-01-17T06:13:09.402Z,5.29
2023-01-17T06:14:09.501Z,5.29
2023-01-17T06:15:09.374Z,5.29
2023-01-17T06:16:09.681Z,5.29
2023-01-17T06:17:09.160Z,5.29
2023-01-17T06:18:09.142Z,5.29
2023-01-17T06:19:10.204Z,5.29
2023-01-17T06:20:09.316Z,5.29
2023-01-17T06:21:09.161Z,5.29
2023-01-17T06:22:10.068Z,5.29
2023-01-17T06:23:09.649Z,5.29
2023-01-17T06:24:10.079Z,5.29
2023-01-17T06:25:10.165Z,5.25
2023-01-17T06:26:10.595Z,5.25
2023-01-17T06:27:10.333Z,5.25
2023-01-17T06:28:09.559Z,5.25
2023-01-17T06:29:09.389Z,5.29
2023-01-17T06:30:09.208Z,5.29
2023-01-17T06:31:10.252Z,5.29
2023-01-17T06:32:08.399Z,5.29
2023-01-17T06:33:09.122Z,5.29
2023-01-17T06:34:09.584Z,5.29
2023-01-17T06:35:09.980Z,5.29
2023-01-17T06:36:09.545Z,5.29
2023-01-17T06:37:09.643Z,5.29
2023-01-17T06:38:09.178Z,5.29
2023-01-17T06:39:09.288Z,5.29
2023-01-17T06:40:09.181Z,5.29
2023-01-17T06:41:09.754Z,5.25
2023-01-17T06:42:09.570Z,5.25
2023-01-17T06:43:09.409Z,5.25
2023-01-17T06:44:09.131Z,5.25
2023-01-17T06:45:09.385Z,5.25
2023-01-17T06:46:10.282Z,5.25
2023-01-17T06:47:09.291Z,5.22
2023-01-17T06:48:09.761Z,5.25
2023-01-17T06:49:09.124Z,5.22
2023-01-17T06:50:09.241Z,5.22
2023-01-17T06:51:10.307Z,5.18
2023-01-17T06:52:09.119Z,5.18
2023-01-17T06:53:09.736Z,5.15
2023-01-17T06:54:08.002Z,5.15
2023-01-17T06:55:10.432Z,5.18
2023-01-17T06:56:09.653Z,5.18
2023-01-17T06:57:09.338Z,5.18
2023-01-17T06:58:09.641Z,5.22
2023-01-17T06:59:09.545Z,5.22
2023-01-17T07:00:09.438Z,5.25
2023-01-17T07:01:09.746Z,5.25
2023-01-17T07:02:09.695Z,5.25
2023-01-17T07:03:09.574Z,5.25
2023-01-17T07:04:09.234Z,5.29
2023-01-17T07:05:09.126Z,5.29
2023-01-17T07:06:09.596Z,5.29
2023-01-17T07:07:10.056Z,5.33
2023-01-17T07:08:10.054Z,5.33
2023-01-17T07:09:09.471Z,5.29
2023-01-17T07:10:10.049Z,5.33
2023-01-17T07:11:09.865Z,5.33
2023-01-17T07:12:09.269Z,5.33
2023-01-17T07:13:09.375Z,5.33
2023-01-17T07:14:09.598Z,5.33
2023-01-17T07:15:09.488Z,5.29
2023-01-17T07:16:10.390Z,5.25
2023-01-17T07:17:08.232Z,5.25
2023-01-17T07:18:10.267Z,5.25
2023-01-17T07:19:09.799Z,5.22
2023-01-17T07:20:10.172Z,5.18
2023-01-17T07:21:10.286Z,5.18
2023-01-17T07:22:09.187Z,5.18
2023-01-17T07:23:10.121Z,5.15
2023-01-17T07:24:09.293Z,5.15
2023-01-17T07:25:09.839Z,5.11
2023-01-17T07:26:09.569Z,5.11
2023-01-17T07:27:09.841Z,5.08
2023-01-17T07:28:09.657Z,5.08
2023-01-17T07:29:10.106Z,5.08
2023-01-17T07:30:09.133Z,5.08
2023-01-17T07:31:10.833Z,5.08
2023-01-17T07:32:09.121Z,5.08
2023-01-17T07:33:09.250Z,5.04
2023-01-17T07:34:09.262Z,5.04
2023-01-17T07:35:09.295Z,5.04
2023-01-17T07:36:10.119Z,5.04
2023-01-17T07:37:09.264Z,5.04
2023-01-17T07:38:09.396Z,5.04
2023-01-17T07:39:07.933Z,5.04
2023-01-17T07:40:09.410Z,5.04
2023-01-17T07:41:11.071Z,5.08
2023-01-17T07:42:09.926Z,5.08
2023-01-17T07:43:09.556Z,5.08
2023-01-17T07:44:10.137Z,5.08
2023-01-17T07:45:10.183Z,5.11
2023-01-17T07:46:09.849Z,5.11
2023-01-17T07:47:09.962Z,5.11
2023-01-17T07:48:09.563Z,5.11
2023-01-17T07:49:09.531Z,5.11
2023-01-17T07:50:09.824Z,5.15
2023-01-17T07:51:09.200Z,5.15
2023-01-17T07:52:10.496Z,5.15
2023-01-17T07:53:11.664Z,5.18
2023-01-17T07:54:09.138Z,5.22
2023-01-17T07:55:09.886Z,5.25
2023-01-17T07:56:09.585Z,5.25
2023-01-17T07:57:10.486Z,5.29
2023-01-17T07:58:09.122Z,5.29
2023-01-17T07:59:09.155Z,5.29
2023-01-17T08:00:09.880Z,5.29
2023-01-17T08:01:09.951Z,5.33
2023-01-17T08:02:08.343Z,5.33
2023-01-17T08:03:09.630Z,5.33
2023-01-17T08:04:10.570Z,5.33
2023-01-17T08:05:09.604Z,5.29
2023-01-17T08:06:09.113Z,5.29
2023-01-17T08:07:10.704Z,5.36
2023-01-17T08:08:10.087Z,5.36
2023-01-17T08:09:10.165Z,5.36
2023-01-17T08:10:09.366Z,5.4
2023-01-17T08:11:09.477Z,5.44
2023-01-17T08:12:09.322Z,5.44
2023-01-17T08:13:09.398Z,5.44
2023-01-17T08:14:09.806Z,5.44
2023-01-17T08:15:09.918Z,5.47
2023-01-17T08:16:09.208Z,5.47
2023-01-17T08:17:09.115Z,5.47
2023-01-17T08:18:09.123Z,5.47
2023-01-17T08:19:09.535Z,5.44
2023-01-17T08:20:10.064Z,5.44
2023-01-17T08:21:09.113Z,5.4
2023-01-17T08:22:10.159Z,5.4
2023-01-17T08:23:10.201Z,5.4
2023-01-17T08:24:07.942Z,5.4
2023-01-17T08:25:10.020Z,5.4
2023-01-17T08:26:09.192Z,5.36
2023-01-17T08:27:09.890Z,5.33
2023-01-17T08:28:09.184Z,5.33
2023-01-17T08:29:10.199Z,5.29
2023-01-17T08:30:10.217Z,5.29
2023-01-17T08:31:09.094Z,5.29
2023-01-17T08:32:09.837Z,5.29
2023-01-17T08:33:09.633Z,5.29
2023-01-17T08:34:09.829Z,5.33
2023-01-17T08:35:09.665Z,5.33
2023-01-17T08:36:10.649Z,5.29
2023-01-17T08:37:10.449Z,5.29
2023-01-17T08:38:09.773Z,5.29
2023-01-17T08:39:10.220Z,5.33
2023-01-17T08:40:09.121Z,5.36
2023-01-17T08:41:09.686Z,5.36
2023-01-17T08:42:09.506Z,5.4
2023-01-17T08:43:09.500Z,5.44
2023-01-17T08:44:10.483Z,5.44
2023-01-17T08:45:09.414Z,5.44
2023-01-17T08:46:09.332Z,5.47
2023-01-17T08:47:09.499Z,5.51
2023-01-17T08:48:09.445Z,5.51
2023-01-17T08:49:09.119Z,5.55
2023-01-17T08:50:10.321Z,5.55
2023-01-17T08:51:09.532Z,5.59
2023-01-17T08:52:09.299Z,5.62
2023-01-17T08:53:09.712Z,5.7
2023-01-17T08:54:09.245Z,5.7
2023-01-17T08:55:10.310Z,5.74
2023-01-17T08:56:09.613Z,5.78
2023-01-17T08:57:09.816Z,5.78
2023-01-17T08:58:10.317Z,5.78
2023-01-17T08:59:09.687Z,5.78
2023-01-17T09:00:09.211Z,5.74
2023-01-17T09:01:09.705Z,5.78
2023-01-17T09:02:10.192Z,5.86
2023-01-17T09:03:09.682Z,5.9
2023-01-17T09:04:09.255Z,6.06
2023-01-17T09:05:09.712Z,6.06
2023-01-17T09:06:09.141Z,6.1
2023-01-17T09:07:09.956Z,6.1
2023-01-17T09:08:10.063Z,6.14
2023-01-17T09:10:09.869Z,6.18
2023-01-17T09:11:09.937Z,6.02
2023-01-17T09:12:09.479Z,6.03
2023-01-17T09:13:09.479Z,6.03
2023-01-17T09:14:10.218Z,5.96
2023-01-17T09:15:09.167Z,5.94
2023-01-17T09:16:10.268Z,5.98
2023-01-17T09:17:09.205Z,5.94
2023-01-17T09:18:09.921Z,5.94
2023-01-17T09:19:09.742Z,5.9
2023-01-17T09:20:10.259Z,5.89
2023-01-17T09:21:09.854Z,5.84
2023-01-17T09:22:09.436Z,5.82
2023-01-17T09:23:09.743Z,5.82
2023-01-17T09:24:09.359Z,5.78
2023-01-17T09:25:09.116Z,5.74
2023-01-17T09:26:09.620Z,5.78
2023-01-17T09:27:09.170Z,5.74
2023-01-17T09:28:09.233Z,5.78
2023-01-17T09:29:09.375Z,5.74
2023-01-17T09:30:09.347Z,5.74
2023-01-17T09:31:09.264Z,5.74
2023-01-17T09:32:09.525Z,5.74
2023-01-17T09:33:09.326Z,5.7
2023-01-17T09:34:10.553Z,5.7
2023-01-17T09:35:09.454Z,5.66
2023-01-17T09:36:09.600Z,5.66
2023-01-17T09:37:09.280Z,5.66
2023-01-17T09:38:10.162Z,5.66
2023-01-17T09:39:10.364Z,5.66
2023-01-17T09:40:09.226Z,5.7
2023-01-17T09:41:10.175Z,5.7
2023-01-17T09:42:09.635Z,5.66
2023-01-17T09:43:09.185Z,5.62
2023-01-17T09:44:09.815Z,5.62
2023-01-17T09:45:09.702Z,5.62
2023-01-17T09:46:09.725Z,5.62
2023-01-17T09:47:09.544Z,5.62
2023-01-17T09:48:09.593Z,5.62
2023-01-17T09:49:10.280Z,5.66
2023-01-17T09:50:09.614Z,5.7
2023-01-17T09:51:09.859Z,5.66
2023-01-17T09:52:09.556Z,5.7
2023-01-17T09:53:09.765Z,5.7
2023-01-17T09:54:08.764Z,5.74
2023-01-17T09:55:09.673Z,5.74
2023-01-17T09:56:09.579Z,5.74
2023-01-17T09:57:09.157Z,5.74
2023-01-17T09:58:09.682Z,5.78
2023-01-17T09:59:09.192Z,5.74
2023-01-17T10:00:11.197Z,5.78
2023-01-17T10:01:09.975Z,5.86
2023-01-17T10:02:10.422Z,5.86
2023-01-17T10:03:09.662Z,5.86
2023-01-17T10:04:09.606Z,5.86
2023-01-17T10:05:09.861Z,5.86
2023-01-17T10:06:09.124Z,5.83
2023-01-17T10:07:09.100Z,5.86
2023-01-17T10:08:09.468Z,5.9
2023-01-17T10:09:10.315Z,5.94
2023-01-17T10:10:10.069Z,5.84
2023-01-17T10:11:09.246Z,5.83
2023-01-17T10:12:09.167Z,5.9
2023-01-17T10:13:10.477Z,5.84
2023-01-17T10:14:09.776Z,5.85
2023-01-17T10:15:10.542Z,5.81
2023-01-17T10:17:09.989Z,5.83
2023-01-17T10:18:14.591Z,5.81
2023-01-17T10:19:09.261Z,5.74
2023-01-17T10:20:09.724Z,5.66
2023-01-17T10:21:09.637Z,5.68
2023-01-17T10:22:09.717Z,5.67
2023-01-17T10:23:09.652Z,5.7
2023-01-17T10:24:09.793Z,5.74
2023-01-17T10:25:09.548Z,5.75
2023-01-17T10:26:09.761Z,5.78
2023-01-17T10:27:09.663Z,5.77
2023-01-17T10:28:10.180Z,5.69
2023-01-17T10:29:10.255Z,5.67
2023-01-17T10:30:10.115Z,5.63
2023-01-17T10:31:09.226Z,5.73
2023-01-17T10:32:10.013Z,5.77
2023-01-17T10:33:09.865Z,5.75
2023-01-17T10:34:10.302Z,5.67
2023-01-17T10:35:10.422Z,5.67
2023-01-17T10:36:09.486Z,5.64
2023-01-17T10:37:09.597Z,5.69
2023-01-17T10:38:09.907Z,5.7
2023-01-17T10:39:09.143Z,5.69
2023-01-17T10:40:09.099Z,5.66
2023-01-17T10:41:09.656Z,5.64
2023-01-17T10:42:10.163Z,5.69
2023-01-17T10:43:09.606Z,5.83
2023-01-17T10:44:10.167Z,5.85
2023-01-17T10:45:09.713Z,5.83
2023-01-17T10:46:10.445Z,5.82
2023-01-17T10:47:09.737Z,5.73
2023-01-17T10:48:09.112Z,5.75
2023-01-17T10:49:09.100Z,5.76
2023-01-17T10:50:09.387Z,5.76
2023-01-17T10:51:09.353Z,5.92
2023-01-17T10:52:10.160Z,5.96
2023-01-17T10:53:09.917Z,5.95
2023-01-17T10:54:09.831Z,5.87
2023-01-17T10:55:09.658Z,5.89
2023-01-17T10:56:09.782Z,5.9
2023-01-17T10:57:09.471Z,5.96
2023-01-17T10:58:10.304Z,5.89
2023-01-17T10:59:09.093Z,5.82
2023-01-17T11:00:10.176Z,5.83
2023-01-17T11:01:09.015Z,5.9
2023-01-17T11:02:10.594Z,5.96
2023-01-17T11:03:09.866Z,5.91
2023-01-17T11:04:09.298Z,5.8
2023-01-17T11:05:09.886Z,5.7
2023-01-17T11:06:10.523Z,5.82
2023-01-17T11:07:10.351Z,6.02
2023-01-17T11:08:10.208Z,5.91
2023-01-17T11:09:09.169Z,5.95
2023-01-17T11:10:09.702Z,5.86
2023-01-17T11:11:09.600Z,5.76
2023-01-17T11:12:09.609Z,5.75
2023-01-17T11:13:09.468Z,5.71
2023-01-17T11:14:09.785Z,5.68
2023-01-17T11:15:09.122Z,5.77
2023-01-17T11:16:09.555Z,6.02
2023-01-17T11:17:10.173Z,6.04
2023-01-17T11:18:09.239Z,5.7
2023-01-17T11:19:10.213Z,5.76
2023-01-17T11:20:10.206Z,5.84
2023-01-17T11:21:09.554Z,5.8
2023-01-17T11:22:09.780Z,5.93
2023-01-17T11:24:10.194Z,5.88
2023-01-17T11:25:09.656Z,5.96
2023-01-17T11:26:10.114Z,5.72
2023-01-17T11:27:09.125Z,5.68
2023-01-17T11:28:09.614Z,5.69
2023-01-17T11:29:10.057Z,5.69
2023-01-17T11:30:09.717Z,5.75
2023-01-17T11:31:09.160Z,5.66
2023-01-17T11:32:09.613Z,5.72
2023-01-17T11:33:09.320Z,5.66
2023-01-17T11:34:10.367Z,5.38
2023-01-17T11:35:09.431Z,5.28
2023-01-17T11:36:09.756Z,5.37
2023-01-17T11:37:10.460Z,5.22
2023-01-17T11:38:10.805Z,5.04
2023-01-17T11:39:10.385Z,4.98
2023-01-17T11:40:09.105Z,4.92
2023-01-17T11:41:09.525Z,4.89
2023-01-17T11:42:09.348Z,4.86
2023-01-17T11:43:09.924Z,4.88
2023-01-17T11:44:10.469Z,4.88
2023-01-17T11:45:10.301Z,4.89
2023-01-17T11:46:08.597Z,4.94
2023-01-17T11:47:09.670Z,5.03
2023-01-17T11:48:10.200Z,5.06
2023-01-17T11:49:09.679Z,5.16
2023-01-17T11:50:09.396Z,4.79
2023-01-17T11:51:09.970Z,4.98
2023-01-17T11:52:09.089Z,4.91
2023-01-17T11:53:09.926Z,4.87
2023-01-17T11:54:09.239Z,4.78
2023-01-17T11:55:09.761Z,4.91
2023-01-17T11:56:09.448Z,4.83
2023-01-17T11:57:09.098Z,4.96
2023-01-17T11:58:09.101Z,4.9
2023-01-17T11:59:09.607Z,4.97
2023-01-17T12:00:09.100Z,5
2023-01-17T12:01:09.209Z,5.09
2023-01-17T12:02:10.239Z,5.12
2023-01-17T12:03:09.765Z,5.09
2023-01-17T12:04:09.739Z,5.03
2023-01-17T12:05:09.978Z,5.05
2023-01-17T12:06:09.212Z,5.04
2023-01-17T12:07:09.599Z,5.03
2023-01-17T12:08:09.824Z,4.94
2023-01-17T12:09:09.845Z,5.09
2023-01-17T12:10:10.113Z,5.17
2023-01-17T12:11:09.673Z,4.97
2023-01-17T12:12:09.127Z,5.1
2023-01-17T12:13:09.423Z,4.99
2023-01-17T12:14:09.931Z,5.07
2023-01-17T12:15:10.575Z,4.95
2023-01-17T12:16:10.261Z,4.85
2023-01-17T12:17:09.154Z,4.84
2023-01-17T12:18:09.788Z,4.84
2023-01-17T12:19:10.921Z,5
2023-01-17T12:20:09.082Z,4.83
2023-01-17T12:21:09.681Z,4.85
2023-01-17T12:22:09.669Z,4.9
2023-01-17T12:23:09.957Z,4.78
2023-01-17T12:24:09.878Z,5.09
2023-01-17T12:25:09.235Z,5.22
2023-01-17T12:26:10.449Z,4.96
2023-01-17T12:27:10.405Z,4.85
2023-01-17T12:28:09.088Z,5.17
2023-01-17T12:29:08.912Z,4.94
2023-01-17T12:30:10.688Z,4.95
2023-01-17T12:32:09.807Z,4.8
2023-01-17T12:33:09.101Z,4.83
2023-01-17T12:34:09.154Z,5.16
2023-01-17T12:35:09.085Z,5.24
2023-01-17T12:36:09.224Z,5.49
2023-01-17T12:37:10.506Z,5.5
2023-01-17T12:38:11.404Z,4.83
2023-01-17T12:39:09.624Z,4.73
2023-01-17T12:40:10.125Z,4.75
2023-01-17T12:41:09.270Z,4.66
2023-01-17T12:42:09.186Z,5.15
2023-01-17T12:43:09.760Z,4.97
2023-01-17T12:44:09.258Z,4.84
2023-01-17T12:45:09.732Z,4.88
2023-01-17T12:46:09.292Z,5.19
2023-01-17T12:47:09.540Z,5.24
2023-01-17T12:48:09.279Z,4.82
2023-01-17T12:49:10.048Z,4.91
2023-01-17T12:50:09.226Z,5.4
2023-01-17T12:51:09.101Z,4.91
2023-01-17T12:52:10.742Z,5.03
2023-01-17T12:53:09.759Z,4.65
2023-01-17T12:54:09.523Z,4.68
2023-01-17T12:55:09.673Z,4.57
2023-01-17T12:56:09.376Z,4.9
2023-01-17T12:57:10.610Z,5.05
2023-01-17T12:58:09.596Z,5.22
2023-01-17T12:59:10.908Z,5.03
2023-01-17T13:00:09.282Z,4.72
2023-01-17T13:01:09.490Z,5.3
2023-01-17T13:02:10.017Z,5.52
2023-01-17T13:03:09.988Z,5.15
2023-01-17T13:04:10.072Z,4.97
2023-01-17T13:05:09.131Z,4.76
2023-01-17T13:06:09.841Z,5.07
2023-01-17T13:07:09.743Z,5.05
2023-01-17T13:08:10.029Z,4.95
2023-01-17T13:09:10.116Z,4.99
2023-01-17T13:10:10.282Z,5.11
2023-01-17T13:11:10.231Z,4.73
2023-01-17T13:12:09.655Z,5.12
2023-01-17T13:13:09.445Z,4.92
2023-01-17T13:14:09.450Z,4.75
2023-01-17T13:15:09.732Z,4.95
2023-01-17T13:16:09.422Z,5.38
2023-01-17T13:17:09.606Z,4.83
2023-01-17T13:18:09.532Z,4.62
2023-01-17T13:19:10.231Z,4.83
2023-01-17T13:20:09.344Z,5.01
2023-01-17T13:21:09.934Z,4.81
2023-01-17T13:22:09.152Z,4.82
2023-01-17T13:23:09.676Z,5.04
2023-01-17T13:24:09.100Z,5.1
2023-01-17T13:25:09.658Z,5.19
2023-01-17T13:26:09.956Z,5.43
2023-01-17T13:27:09.173Z,4.81